Time;durP1;ratioP1;P1;durP2;ratioP2;P2;SDS_P1;SDS_P2;PMS_P1;PMS_P2;Temp;Humidity;BMP_temperature;BMP_pressure;BME280_temperature;BME280_humidity;BME280_pressure;Samples;Min_cycle;Max_cycle;Signal;HPM_P1;HPM_P2
2022/06/25 00:01:16;;;;;;;;;;;;;;;;;;5016368;28;20443;-79
2022/06/25 00:03:43;;;;;;;;;;;;;;;;;;5015526;28;19925;-79
2022/06/25 00:06:09;;;;;;;;;;;;;;;;;;5016426;28;20410;-78
2022/06/25 00:08:36;;;;;;;;;;;;;;;;;;5015700;28;19980;-78
2022/06/25 00:11:03;;;;;;;;;;;;;;;;;;5018112;28;19926;-77
2022/06/25 00:13:30;;;;;;;;;;;;;;;;;;5025760;28;19926;-78
2022/06/25 00:15:56;;;;;;;;;;;;;;;;;;5023135;28;19933;-78
2022/06/25 00:18:41;;;;;;;;;;;;;;;;;;5021113;28;19933;-80
2022/06/25 00:21:07;;;;;;;;;;;;;;;;;;5016859;28;19925;-80
2022/06/25 00:23:34;;;;;;;;;;;;;;;;;;5016046;28;19925;-79
2022/06/25 00:26:00;;;;;;;;;;;;;;;;;;5013536;28;19926;-79
2022/06/25 00:28:26;;;;;;;;;;;;;;;;;;5014330;28;19925;-79
2022/06/25 00:30:54;;;;;;;;;;;;;;;;;;5016596;28;19987;-79
2022/06/25 00:33:21;;;;;;;;;;;;;;;;;;5015143;28;20019;-78
2022/06/25 00:35:48;;;;;;;;;;;;;;;;;;5013364;28;20020;-77
2022/06/25 00:38:14;;;;;;;;;;;;;;;;;;5012945;28;19925;-77
2022/06/25 00:40:40;;;;;;;;;;;;;;;;;;5013033;28;20273;-77
2022/06/25 00:43:07;;;;;;;;;;;;;;;;;;5012824;28;19932;-78
2022/06/25 00:45:33;;;;;;;;;;;;;;;;;;5013105;28;19925;-79
2022/06/25 00:48:01;;;;;;;;;;;;;;;;;;5013105;28;19932;-78
2022/06/25 00:50:28;;;;;;;;;;;;;;;;;;5012447;28;20020;-79
2022/06/25 00:52:57;;;;;;;;;;;;;;;;;;5012942;28;20008;-78
2022/06/25 00:55:26;;;;;;;;;;;;;;;;;;5014515;28;20376;-79
2022/06/25 00:57:56;;;;;;;;;;;;;;;;;;5016147;28;19929;-78
2022/06/25 01:00:22;;;;;;;;;;;;;;;;;;5030210;28;20013;-79
2022/06/25 01:02:50;;;;;;;;;;;;;;;;;;5034366;28;21644;-79
2022/06/25 01:05:18;;;;;;;;;;;;;;;;;;5035474;28;19955;-79
2022/06/25 01:07:46;;;;;;;;;;;;;;;;;;5037727;28;19925;-78
2022/06/25 01:10:13;;;;;;;;;;;;;;;;;;5037821;28;19925;-78
2022/06/25 01:12:39;;;;;;;;;;;;;;;;;;5040828;28;20466;-78
2022/06/25 01:15:09;;;;;;;;;;;;;;;;;;5040870;28;19972;-78
2022/06/25 01:17:36;;;;;;;;;;;;;;;;;;5039256;28;19925;-76
2022/06/25 01:20:03;;;;;;;;;;;;;;;;;;5038315;28;19929;-77
2022/06/25 01:22:32;;;;;;;;;;;;;;;;;;5038545;28;19924;-80
2022/06/25 01:25:02;;;;;;;;;;;;;;;;;;5039859;28;19929;-79
2022/06/25 01:27:28;;;;;;;;;;;;;;;;;;5037570;28;19929;-79
2022/06/25 01:29:54;;;;;;;;;;;;;;;;;;5035464;28;20296;-77
2022/06/25 01:32:21;;;;;;;;;;;;;;;;;;5035994;28;19932;-76
2022/06/25 01:34:47;;;;;;;;;;;;;;;;;;5035699;28;19934;-77
2022/06/25 01:37:14;;;;;;;;;;;;;;;;;;5036063;28;19931;-78
2022/06/25 01:39:41;;;;;;;;;;;;;;;;;;5035479;28;20367;-77
2022/06/25 01:42:58;;;;;;;;;;;;;;;;;;5038215;28;19925;-80
2022/06/25 01:44:55;;;;;;;;;;;;;;;;;;5035648;28;20359;-78
2022/06/25 01:47:21;;;;;;;;;;;;;;;;;;5035939;28;19925;-78
2022/06/25 01:49:48;;;;;;;;;;;;;;;;;;5035252;28;20450;-79
2022/06/25 01:52:14;;;;;;;;;;;;;;;;;;5035612;28;20300;-77
2022/06/25 01:54:42;;;;;;;;;;;;;;;;;;5035827;28;20008;-77
2022/06/25 01:57:09;;;;;;;;;;;;;;;;;;5035757;28;19925;-78
2022/06/25 01:59:35;;;;;;;;;;;;;;;;;;5035124;28;20566;-77
2022/06/25 02:02:01;;;;;;;;;;;;;;;;;;5035550;28;20009;-77
2022/06/25 02:04:28;;;;;;;;;;;;;;;;;;5035337;28;20016;-77
2022/06/25 02:06:54;;;;;;;;;;;;;;;;;;5037164;28;20366;-80
2022/06/25 02:09:21;;;;;;;;;;;;;;;;;;5039149;28;19952;-80
2022/06/25 02:11:49;;;;;;;;;;;;;;;;;;5036536;28;20027;-78
2022/06/25 02:14:15;;;;;;;;;;;;;;;;;;5035239;28;20303;-79
2022/06/25 02:16:42;;;;;;;;;;;;;;;;;;5035103;28;19925;-78
2022/06/25 02:19:09;;;;;;;;;;;;;;;;;;5035303;28;19987;-78
2022/06/25 02:21:35;;;;;;;;;;;;;;;;;;5034805;28;20384;-77
2022/06/25 02:24:02;;;;;;;;;;;;;;;;;;5034741;28;19983;-77
2022/06/25 02:26:28;;;;;;;;;;;;;;;;;;5035099;28;19931;-79
2022/06/25 02:28:56;;;;;;;;;;;;;;;;;;5035082;28;19925;-77
2022/06/25 02:31:22;;;;;;;;;;;;;;;;;;5034538;28;19933;-78
2022/06/25 02:33:49;;;;;;;;;;;;;;;;;;5035139;28;19925;-78
2022/06/25 02:36:15;;;;;;;;;;;;;;;;;;5035155;28;19925;-77
2022/06/25 02:38:42;;;;;;;;;;;;;;;;;;5035612;28;20291;-78
2022/06/25 02:41:08;;;;;;;;;;;;;;;;;;5035339;28;19925;-78
2022/06/25 02:43:35;;;;;;;;;;;;;;;;;;5035367;28;19929;-78
2022/06/25 02:46:03;;;;;;;;;;;;;;;;;;5035013;28;19925;-78
2022/06/25 02:48:29;;;;;;;;;;;;;;;;;;5034952;28;20345;-79
2022/06/25 02:50:56;;;;;;;;;;;;;;;;;;5034872;28;19925;-78
2022/06/25 02:53:22;;;;;;;;;;;;;;;;;;5035234;28;19925;-78
2022/06/25 03:01:18;;;;;;;;;;;;;;;;;;5034619;28;19933;-76
2022/06/25 03:03:44;;;;;;;;;;;;;;;;;;5034878;28;19933;-76
2022/06/25 03:06:10;;;;;;;;;;;;;;;;;;5035839;28;19947;-77
2022/06/25 03:08:37;;;;;;;;;;;;;;;;;;5038244;28;20384;-77
2022/06/25 03:11:03;;;;;;;;;;;;;;;;;;5042966;28;19972;-77
2022/06/25 03:13:32;;;;;;;;;;;;;;;;;;5039486;28;19967;-76
2022/06/25 03:15:59;;;;;;;;;;;;;;;;;;5037112;28;19932;-78
2022/06/25 03:18:26;;;;;;;;;;;;;;;;;;5063379;23;19991;-64
2022/06/25 03:20:53;;;;;;;;;;;;;;;;;;5033808;28;19955;-64
2022/06/25 03:23:20;;;;;;;;;;;;;;;;;;5033597;28;19940;-63
2022/06/25 03:25:47;;;;;;;;;;;;;;;;;;5034100;28;19932;-64
2022/06/25 03:28:13;;;;;;;;;;;;;;;;;;5034207;28;19925;-63
2022/06/25 03:30:40;;;;;;;;;;;;;;;;;;5033722;28;19926;-64
2022/06/25 03:33:07;;;;;;;;;;;;;;;;;;5033775;28;19940;-64
2022/06/25 03:35:35;;;;;;;;;;;;;;;;;;5032830;28;19925;-64
2022/06/25 03:38:01;;;;;;;;;;;;;;;;;;5033824;28;19925;-63
2022/06/25 03:40:28;;;;;;;;;;;;;;;;;;5033495;28;19925;-65
2022/06/25 03:42:54;;;;;;;;;;;;;;;;;;5033285;28;19929;-65
2022/06/25 03:45:21;;;;;;;;;;;;;;;;;;5033416;28;19979;-64
2022/06/25 03:47:51;;;;;;;;;;;;;;;;;;5033399;28;19929;-63
2022/06/25 03:50:17;;;;;;;;;;;;;;;;;;5033256;28;19931;-64
2022/06/25 03:52:45;;;;;;;;;;;;;;;;;;5033223;28;19925;-64
2022/06/25 03:55:12;;;;;;;;;;;;;;;;;;5033449;28;19933;-64
2022/06/25 03:57:38;;;;;;;;;;;;;;;;;;5033360;28;20390;-65
2022/06/25 04:00:07;;;;;;;;;;;;;;;;;;5033045;28;19929;-65
2022/06/25 04:02:33;;;;;;;;;;;;;;;;;;5033223;28;20275;-64
2022/06/25 04:05:00;;;;;;;;;;;;;;;;;;5032978;28;19975;-65
2022/06/25 04:07:27;;;;;;;;;;;;;;;;;;5033177;28;19925;-65
2022/06/25 04:09:55;;;;;;;;;;;;;;;;;;5033042;28;19975;-66
2022/06/25 04:12:21;;;;;;;;;;;;;;;;;;5032902;28;19987;-64
2022/06/25 04:14:48;;;;;;;;;;;;;;;;;;5032866;28;20471;-64
2022/06/25 04:17:14;;;;;;;;;;;;;;;;;;5032870;28;19924;-65
2022/06/25 04:19:41;;;;;;;;;;;;;;;;;;5032884;28;19925;-64
2022/06/25 04:22:08;;;;;;;;;;;;;;;;;;5032833;28;19925;-65
2022/06/25 04:24:35;;;;;;;;;;;;;;;;;;5032560;28;20281;-67
2022/06/25 04:27:03;;;;;;;;;;;;;;;;;;5032822;28;20012;-64
2022/06/25 04:29:28;;;;;;;;;;;;;;;;;;5032381;28;19932;-64
2022/06/25 04:31:55;;;;;;;;;;;;;;;;;;5032284;28;20024;-64
2022/06/25 04:34:21;;;;;;;;;;;;;;;;;;5032417;28;20340;-64
2022/06/25 04:36:48;;;;;;;;;;;;;;;;;;5032222;28;19973;-64
2022/06/25 04:39:15;;;;;;;;;;;;;;;;;;5032537;28;19925;-65
2022/06/25 04:41:41;;;;;;;;;;;;;;;;;;5032388;28;19925;-64
2022/06/25 04:44:09;;;;;;;;;;;;;;;;;;5032257;28;19990;-63
2022/06/25 04:46:36;;;;;;;;;;;;;;;;;;5032262;28;20307;-63
2022/06/25 04:49:03;;;;;;;;;;;;;;;;;;5032657;28;19925;-64
2022/06/25 04:51:29;;;;;;;;;;;;;;;;;;5032336;28;19925;-65
2022/06/25 04:53:56;;;;;;;;;;;;;;;;;;5032805;28;19975;-63
2022/06/25 04:56:23;;;;;;;;;;;;;;;;;;5032249;28;19975;-64
2022/06/25 04:58:50;;;;;;;;;;;;;;;;;;5032588;28;19925;-65
2022/06/25 05:01:17;;;;;;;;;;;;;;;;;;5032173;28;19983;-65
2022/06/25 05:03:44;;;;;;;;;;;;;;;;;;5032266;28;19925;-65
2022/06/25 05:06:11;;;;;;;;;;;;;;;;;;5032060;28;19925;-63
2022/06/25 05:08:37;;;;;;;;;;;;;;;;;;5032278;28;20295;-64
2022/06/25 05:11:04;;;;;;;;;;;;;;;;;;5032149;28;19925;-65
2022/06/25 05:13:30;;;;;;;;;;;;;;;;;;5032664;28;20332;-65
2022/06/25 05:15:57;;;;;;;;;;;;;;;;;;5032050;28;20380;-64
2022/06/25 05:18:25;;;;;;;;;;;;;;;;;;5031585;28;19925;-65
2022/06/25 05:20:51;;;;;;;;;;;;;;;;;;5031954;28;19932;-64
2022/06/25 05:23:19;;;;;;;;;;;;;;;;;;5032477;28;19925;-66
2022/06/25 05:25:45;;;;;;;;;;;;;;;;;;5031957;28;19925;-64
2022/06/25 05:28:12;;;;;;;;;;;;;;;;;;5032421;28;19929;-65
2022/06/25 05:30:39;;;;;;;;;;;;;;;;;;5031929;28;19932;-66
2022/06/25 05:33:05;;;;;;;;;;;;;;;;;;5032311;28;20389;-65
2022/06/25 05:35:33;;;;;;;;;;;;;;;;;;5032114;28;19966;-64
2022/06/25 05:38:00;;;;;;;;;;;;;;;;;;5032022;28;19925;-64
2022/06/25 05:40:27;;;;;;;;;;;;;;;;;;5032040;28;19925;-64
2022/06/25 05:42:53;;;;;;;;;;;;;;;;;;5032466;28;20332;-64
2022/06/25 05:45:20;;;;;;;;;;;;;;;;;;5031886;28;19925;-64
2022/06/25 05:47:48;;;;;;;;;;;;;;;;;;5032098;28;20337;-64
2022/06/25 05:50:15;;;;;;;;;;;;;;;;;;5031826;28;19933;-64
2022/06/25 05:52:42;;;;;;;;;;;;;;;;;;5031715;28;19987;-64
2022/06/25 05:55:10;;;;;;;;;;;;;;;;;;5031951;28;20435;-65
2022/06/25 05:57:36;;;;;;;;;;;;;;;;;;5032450;28;19937;-65
2022/06/25 06:00:05;;;;;;;;;;;;;;;;;;5035194;28;20417;-65
2022/06/25 06:02:31;;;;;;;;;;;;;;;;;;5035321;28;20020;-65
2022/06/25 06:04:58;;;;;;;;;;;;;;;;;;5035240;28;19984;-65
2022/06/25 06:07:24;;;;;;;;;;;;;;;;;;5035012;28;19933;-65
2022/06/25 06:09:52;;;;;;;;;;;;;;;;;;5035050;28;19925;-64
2022/06/25 06:12:19;;;;;;;;;;;;;;;;;;5035037;28;19972;-65
2022/06/25 06:14:45;;;;;;;;;;;;;;;;;;5034524;28;19925;-64
2022/06/25 06:17:12;;;;;;;;;;;;;;;;;;5034842;28;19925;-65
2022/06/25 06:19:38;;;;;;;;;;;;;;;;;;5035050;28;19975;-66
2022/06/25 06:22:05;;;;;;;;;;;;;;;;;;5034828;28;20426;-64
2022/06/25 06:24:31;;;;;;;;;;;;;;;;;;5034986;28;19925;-63
2022/06/25 06:27:01;;;;;;;;;;;;;;;;;;5034926;28;19926;-65
2022/06/25 06:29:27;;;;;;;;;;;;;;;;;;5035111;28;19972;-65
2022/06/25 06:31:54;;;;;;;;;;;;;;;;;;5034574;28;19925;-65
2022/06/25 06:34:20;;;;;;;;;;;;;;;;;;5034900;28;20332;-64
2022/06/25 06:36:47;;;;;;;;;;;;;;;;;;5034821;28;19937;-65
2022/06/25 06:39:14;;;;;;;;;;;;;;;;;;5034755;28;19925;-66
2022/06/25 06:41:40;;;;;;;;;;;;;;;;;;5034572;28;19929;-65
2022/06/25 06:44:08;;;;;;;;;;;;;;;;;;5034811;28;20372;-64
2022/06/25 06:46:35;;;;;;;;;;;;;;;;;;5034377;28;20347;-66
2022/06/25 06:49:01;;;;;;;;;;;;;;;;;;5034576;28;19932;-65
2022/06/25 06:51:28;;;;;;;;;;;;;;;;;;5034328;28;19929;-65
2022/06/25 06:56:57;;;;;;;;;;;;;;;;;;5034081;28;20444;-66
2022/06/25 06:59:26;;;;;;;;;;;;;;;;;;5034384;28;20007;-65
2022/06/25 07:01:53;;;;;;;;;;;;;;;;;;5034346;28;19979;-63
2022/06/25 07:04:19;;;;;;;;;;;;;;;;;;5034500;28;19971;-64
2022/06/25 07:06:46;;;;;;;;;;;;;;;;;;5034278;28;20052;-69
2022/06/25 07:09:13;;;;;;;;;;;;;;;;;;5033139;28;19925;-64
2022/06/25 07:11:39;;;;;;;;;;;;;;;;;;5034070;28;19929;-63
2022/06/25 07:14:06;;;;;;;;;;;;;;;;;;5034100;28;19925;-66
2022/06/25 07:16:35;;;;;;;;;;;;;;;;;;5034228;28;19929;-66
2022/06/25 07:19:02;;;;;;;;;;;;;;;;;;5034382;28;20027;-63
2022/06/25 07:21:29;;;;;;;;;;;;;;;;;;5034661;28;20262;-64
2022/06/25 07:23:55;;;;;;;;;;;;;;;;;;5034086;28;20016;-64
2022/06/25 07:26:22;;;;;;;;;;;;;;;;;;5033991;28;19929;-64
2022/06/25 07:28:49;;;;;;;;;;;;;;;;;;5033774;28;19933;-66
2022/06/25 07:31:15;;;;;;;;;;;;;;;;;;5033731;28;19925;-64
2022/06/25 07:33:44;;;;;;;;;;;;;;;;;;5033777;28;19932;-64
2022/06/25 07:36:10;;;;;;;;;;;;;;;;;;5033892;28;19925;-64
2022/06/25 07:38:37;;;;;;;;;;;;;;;;;;5033798;28;19933;-66
2022/06/25 07:41:04;;;;;;;;;;;;;;;;;;5033800;28;19976;-65
2022/06/25 07:43:31;;;;;;;;;;;;;;;;;;5033631;28;20366;-65
2022/06/25 07:45:58;;;;;;;;;;;;;;;;;;5033363;28;20392;-65
2022/06/25 07:48:24;;;;;;;;;;;;;;;;;;5033481;28;19926;-63
2022/06/25 07:56:40;;;;;;;;;;;;;;;;;;5033237;28;19924;-66
2022/06/25 07:59:07;;;;;;;;;;;;;;;;;;5033793;28;19987;-66
2022/06/25 08:01:33;;;;;;;;;;;;;;;;;;5036154;28;20047;-64
2022/06/25 08:04:00;;;;;;;;;;;;;;;;;;5032998;28;19928;-65
2022/06/25 08:06:28;;;;;;;;;;;;;;;;;;5032977;28;19980;-65
2022/06/25 08:08:55;;;;;;;;;;;;;;;;;;5033034;28;19930;-64
2022/06/25 08:11:21;;;;;;;;;;;;;;;;;;5032436;28;19925;-64
2022/06/25 08:13:48;;;;;;;;;;;;;;;;;;5032776;28;19987;-64
2022/06/25 08:16:14;;;;;;;;;;;;;;;;;;5032730;28;19925;-65
2022/06/25 08:18:41;;;;;;;;;;;;;;;;;;5032686;28;19931;-64
2022/06/25 08:21:07;;;;;;;;;;;;;;;;;;5032293;28;19925;-64
2022/06/25 08:23:35;;;;;;;;;;;;;;;;;;5032927;28;19925;-63
2022/06/25 08:26:02;;;;;;;;;;;;;;;;;;5032628;28;19940;-64
2022/06/25 08:28:29;;;;;;;;;;;;;;;;;;5032596;28;19983;-65
2022/06/25 08:30:55;;;;;;;;;;;;;;;;;;5032917;28;19925;-64
2022/06/25 08:33:22;;;;;;;;;;;;;;;;;;5032407;28;19928;-63
2022/06/25 08:35:48;;;;;;;;;;;;;;;;;;5032700;28;20382;-66
2022/06/25 08:38:16;;;;;;;;;;;;;;;;;;5032490;28;19987;-64
2022/06/25 08:40:44;;;;;;;;;;;;;;;;;;5032224;28;20015;-65
2022/06/25 08:43:11;;;;;;;;;;;;;;;;;;5032171;28;20333;-64
2022/06/25 08:45:37;;;;;;;;;;;;;;;;;;5032186;28;19945;-65
2022/06/25 08:48:06;;;;;;;;;;;;;;;;;;5032281;28;19929;-65
2022/06/25 08:50:32;;;;;;;;;;;;;;;;;;5032385;28;19987;-65
2022/06/25 08:52:59;;;;;;;;;;;;;;;;;;5032119;28;19929;-65
2022/06/25 08:55:29;;;;;;;;;;;;;;;;;;5032780;28;20254;-66
2022/06/25 08:57:57;;;;;;;;;;;;;;;;;;5032230;28;20377;-65
2022/06/25 09:00:24;;;;;;;;;;;;;;;;;;5032386;28;20289;-66
2022/06/25 09:02:51;;;;;;;;;;;;;;;;;;5032141;28;19925;-65
2022/06/25 09:05:17;;;;;;;;;;;;;;;;;;5032462;28;19925;-65
2022/06/25 09:07:52;;;;;;;;;;;;;;;;;;5032226;28;19979;-64
2022/06/25 09:10:20;;;;;;;;;;;;;;;;;;5032092;28;19982;-64
2022/06/25 09:12:50;;;;;;;;;;;;;;;;;;5032360;28;19933;-65
2022/06/25 09:15:19;;;;;;;;;;;;;;;;;;5032184;28;19932;-65
2022/06/25 09:17:49;;;;;;;;;;;;;;;;;;5031874;28;20022;-65
2022/06/25 09:20:16;;;;;;;;;;;;;;;;;;5036333;22;19926;-76
2022/06/25 09:22:52;;;;;;;;;;;;;;;;;;5012496;28;19972;-77
2022/06/25 09:25:23;;;;;;;;;;;;;;;;;;5012503;28;19972;-76
2022/06/25 09:27:50;;;;;;;;;;;;;;;;;;5012939;28;19972;-78
2022/06/25 09:30:20;;;;;;;;;;;;;;;;;;5027632;28;19925;-77
2022/06/25 09:32:48;;;;;;;;;;;;;;;;;;5033844;28;20004;-77
2022/06/25 09:35:28;;;;;;;;;;;;;;;;;;5037402;28;19936;-77
2022/06/25 09:38:01;;;;;;;;;;;;;;;;;;5037175;28;20157;-77
2022/06/25 09:40:27;;;;;;;;;;;;;;;;;;5037034;28;19925;-77
2022/06/25 09:42:54;;;;;;;;;;;;;;;;;;5036442;28;19979;-76
2022/06/25 09:45:20;;;;;;;;;;;;;;;;;;5036619;28;20442;-78
2022/06/25 09:47:48;;;;;;;;;;;;;;;;;;5036708;28;20315;-78
2022/06/25 09:50:16;;;;;;;;;;;;;;;;;;5036108;28;19975;-77
2022/06/25 09:52:55;;;;;;;;;;;;;;;;;;5035896;28;20023;-78
2022/06/25 09:55:23;;;;;;;;;;;;;;;;;;5036346;28;20023;-77
2022/06/25 09:57:51;;;;;;;;;;;;;;;;;;5036055;28;20358;-77
2022/06/25 10:00:18;;;;;;;;;;;;;;;;;;5036365;28;19932;-78
2022/06/25 10:02:57;;;;;;;;;;;;;;;;;;5037511;28;19940;-78
2022/06/25 10:05:25;;;;;;;;;;;;;;;;;;5036298;28;20014;-77
2022/06/25 10:08:01;;;;;;;;;;;;;;;;;;5037227;28;19975;-76
2022/06/25 10:10:28;;;;;;;;;;;;;;;;;;5035497;28;20375;-77
2022/06/25 10:12:55;;;;;;;;;;;;;;;;;;5036251;28;19929;-77
2022/06/25 10:15:23;;;;;;;;;;;;;;;;;;5037031;28;19977;-77
2022/06/25 10:17:51;;;;;;;;;;;;;;;;;;5036125;28;20449;-77
2022/06/25 10:20:23;;;;;;;;;;;;;;;;;;5035580;28;19932;-77
2022/06/25 10:22:51;;;;;;;;;;;;;;;;;;5036646;28;19932;-77
2022/06/25 10:25:19;;;;;;;;;;;;;;;;;;5036141;28;19960;-77
2022/06/25 10:27:46;;;;;;;;;;;;;;;;;;5035716;28;20384;-77
2022/06/25 10:30:13;;;;;;;;;;;;;;;;;;5035395;28;20442;-78
2022/06/25 10:32:44;;;;;;;;;;;;;;;;;;5035479;28;20360;-77
2022/06/25 10:35:10;;;;;;;;;;;;;;;;;;5035719;28;19933;-77
2022/06/25 10:38:00;;;;;;;;;;;;;;;;;;5035523;28;20459;-77
2022/06/25 10:40:27;;;;;;;;;;;;;;;;;;5034662;28;20406;-76
2022/06/25 10:42:59;;;;;;;;;;;;;;;;;;5035216;28;20016;-77
2022/06/25 10:45:55;;;;;;;;;;;;;;;;;;5035033;28;19936;-77
2022/06/25 10:48:25;;;;;;;;;;;;;;;;;;5034749;28;20415;-78
2022/06/25 10:50:52;;;;;;;;;;;;;;;;;;5034824;28;19931;-77
2022/06/25 10:53:26;;;;;;;;;;;;;;;;;;5034946;28;20019;-77
2022/06/25 10:56:12;;;;;;;;;;;;;;;;;;5035892;28;19947;-77
2022/06/25 10:58:43;;;;;;;;;;;;;;;;;;5034866;28;19995;-77
2022/06/25 11:01:18;;;;;;;;;;;;;;;;;;5035789;28;19929;-76
2022/06/25 11:03:45;;;;;;;;;;;;;;;;;;5034865;28;19976;-76
2022/06/25 11:06:18;;;;;;;;;;;;;;;;;;5034754;28;20392;-76
2022/06/25 11:08:47;;;;;;;;;;;;;;;;;;5034044;28;20399;-76
2022/06/25 11:11:24;;;;;;;;;;;;;;;;;;5035234;28;19932;-76
2022/06/25 11:13:51;;;;;;;;;;;;;;;;;;5036459;28;19925;-77
2022/06/25 11:16:18;;;;;;;;;;;;;;;;;;5034096;28;20367;-77
2022/06/25 11:18:48;;;;;;;;;;;;;;;;;;5034383;28;20365;-77
2022/06/25 11:21:28;;;;;;;;;;;;;;;;;;5034516;28;19925;-77
2022/06/25 11:24:05;;;;;;;;;;;;;;;;;;5034063;28;19960;-77
2022/06/25 11:29:18;;;;;;;;;;;;;;;;;;5034065;28;19932;-76
2022/06/25 11:31:45;;;;;;;;;;;;;;;;;;5034084;28;20384;-76
2022/06/25 11:34:16;;;;;;;;;;;;;;;;;;5034009;28;20366;-76
2022/06/25 11:36:43;;;;;;;;;;;;;;;;;;5034149;28;19964;-76
2022/06/25 11:39:14;;;;;;;;;;;;;;;;;;5035105;28;20453;-78
2022/06/25 11:41:41;;;;;;;;;;;;;;;;;;5034053;28;19956;-77
2022/06/25 11:44:08;;;;;;;;;;;;;;;;;;5033508;28;19960;-77
2022/06/25 11:46:35;;;;;;;;;;;;;;;;;;5033733;28;19979;-77
2022/06/25 11:49:04;;;;;;;;;;;;;;;;;;5033730;28;19961;-77
2022/06/25 11:51:31;;;;;;;;;;;;;;;;;;5033482;28;20434;-78
2022/06/25 11:53:58;;;;;;;;;;;;;;;;;;5033876;28;19940;-77
2022/06/25 11:56:27;;;;;;;;;;;;;;;;;;5032879;28;20016;-78
2022/06/25 11:58:53;;;;;;;;;;;;;;;;;;5032998;28;19932;-77
2022/06/25 12:01:27;;;;;;;;;;;;;;;;;;5033063;28;19933;-77
2022/06/25 12:03:53;;;;;;;;;;;;;;;;;;5033850;28;19925;-77
2022/06/25 12:06:20;;;;;;;;;;;;;;;;;;5033816;28;19963;-76
2022/06/25 12:08:46;;;;;;;;;;;;;;;;;;5033878;28;20399;-77
2022/06/25 12:11:13;;;;;;;;;;;;;;;;;;5032841;28;20395;-77
2022/06/25 12:13:42;;;;;;;;;;;;;;;;;;5033275;28;19956;-77
2022/06/25 12:16:08;;;;;;;;;;;;;;;;;;5032986;28;20380;-77
2022/06/25 12:18:35;;;;;;;;;;;;;;;;;;5033009;28;19971;-77
2022/06/25 12:21:02;;;;;;;;;;;;;;;;;;5032629;28;19975;-76
2022/06/25 12:23:29;;;;;;;;;;;;;;;;;;5033022;28;19925;-77
2022/06/25 12:25:55;;;;;;;;;;;;;;;;;;5033144;28;19979;-76
2022/06/25 12:28:34;;;;;;;;;;;;;;;;;;5032943;28;19925;-77
2022/06/25 12:31:09;;;;;;;;;;;;;;;;;;5032376;28;20016;-77
2022/06/25 12:33:37;;;;;;;;;;;;;;;;;;5033145;28;19925;-78
2022/06/25 12:36:15;;;;;;;;;;;;;;;;;;5033297;28;19925;-76
2022/06/25 12:38:41;;;;;;;;;;;;;;;;;;5032553;28;20345;-76
2022/06/25 12:41:08;;;;;;;;;;;;;;;;;;5032166;28;19933;-77
2022/06/25 12:43:43;;;;;;;;;;;;;;;;;;5033073;28;19925;-77
2022/06/25 12:46:12;;;;;;;;;;;;;;;;;;5032402;28;19925;-77
2022/06/25 12:48:38;;;;;;;;;;;;;;;;;;5032258;28;19972;-77
2022/06/25 12:51:09;;;;;;;;;;;;;;;;;;5032228;28;19976;-78
2022/06/25 12:53:35;;;;;;;;;;;;;;;;;;5033306;28;20356;-78
2022/06/25 12:56:03;;;;;;;;;;;;;;;;;;5033061;28;20284;-78
2022/06/25 12:58:34;;;;;;;;;;;;;;;;;;5032516;28;20342;-76
2022/06/25 13:01:01;;;;;;;;;;;;;;;;;;5032190;28;19925;-77
2022/06/25 13:03:29;;;;;;;;;;;;;;;;;;5032441;28;19929;-76
2022/06/25 13:05:55;;;;;;;;;;;;;;;;;;5032315;28;20299;-77
2022/06/25 13:08:22;;;;;;;;;;;;;;;;;;5036230;28;19961;-76
2022/06/25 13:10:48;;;;;;;;;;;;;;;;;;5036853;28;19925;-76
2022/06/25 13:13:15;;;;;;;;;;;;;;;;;;5036993;28;19992;-76
2022/06/25 13:15:41;;;;;;;;;;;;;;;;;;5036700;28;19929;-76
2022/06/25 13:18:08;;;;;;;;;;;;;;;;;;5036441;28;19932;-76
2022/06/25 13:20:36;;;;;;;;;;;;;;;;;;5036024;28;20040;-77
2022/06/25 13:23:03;;;;;;;;;;;;;;;;;;5037217;28;19932;-76
2022/06/25 13:25:30;;;;;;;;;;;;;;;;;;5036811;28;19925;-76
2022/06/25 13:27:56;;;;;;;;;;;;;;;;;;5036864;28;19929;-76
2022/06/25 13:30:23;;;;;;;;;;;;;;;;;;5036096;28;19969;-76
2022/06/25 13:32:49;;;;;;;;;;;;;;;;;;5036383;28;20292;-77
2022/06/25 13:35:17;;;;;;;;;;;;;;;;;;5035687;28;20028;-77
2022/06/25 13:37:47;;;;;;;;;;;;;;;;;;5036192;28;20316;-76
2022/06/25 13:40:14;;;;;;;;;;;;;;;;;;5035001;28;19925;-76
2022/06/25 13:42:40;;;;;;;;;;;;;;;;;;5035498;28;20012;-76
2022/06/25 13:45:12;;;;;;;;;;;;;;;;;;5034724;28;19975;-78
2022/06/25 13:47:39;;;;;;;;;;;;;;;;;;5035264;28;19933;-76
2022/06/25 13:50:05;;;;;;;;;;;;;;;;;;5034696;28;19925;-77
2022/06/25 13:52:32;;;;;;;;;;;;;;;;;;5044413;28;19971;-76
2022/06/25 13:55:00;;;;;;;;;;;;;;;;;;5044775;28;20371;-76
2022/06/25 13:57:28;;;;;;;;;;;;;;;;;;5035298;28;19925;-76
2022/06/25 13:59:54;;;;;;;;;;;;;;;;;;5035012;28;19925;-76
2022/06/25 14:02:21;;;;;;;;;;;;;;;;;;5035177;28;19929;-76
2022/06/25 14:04:47;;;;;;;;;;;;;;;;;;5035084;28;20404;-77
2022/06/25 14:07:14;;;;;;;;;;;;;;;;;;5035469;28;20392;-76
2022/06/25 14:09:42;;;;;;;;;;;;;;;;;;5034785;28;20366;-77
2022/06/25 14:12:09;;;;;;;;;;;;;;;;;;5035328;28;20387;-77
2022/06/25 14:14:37;;;;;;;;;;;;;;;;;;5035754;28;19925;-76
2022/06/25 14:17:03;;;;;;;;;;;;;;;;;;5035638;28;19929;-76
2022/06/25 14:19:30;;;;;;;;;;;;;;;;;;5033934;28;19925;-77
2022/06/25 14:21:59;;;;;;;;;;;;;;;;;;5034954;28;20287;-77
2022/06/25 14:27:10;;;;;;;;;;;;;;;;;;5034903;28;20030;-77
2022/06/25 14:29:37;;;;;;;;;;;;;;;;;;5034764;28;19938;-76
2022/06/25 14:32:04;;;;;;;;;;;;;;;;;;5034483;28;19976;-77
2022/06/25 14:34:30;;;;;;;;;;;;;;;;;;5034526;28;20023;-77
2022/06/25 14:42:26;;;;;;;;;;;;;;;;;;5034675;28;19979;-76
2022/06/25 14:44:53;;;;;;;;;;;;;;;;;;5034558;28;19975;-76
2022/06/25 14:47:20;;;;;;;;;;;;;;;;;;5034100;28;19932;-76
2022/06/25 14:49:47;;;;;;;;;;;;;;;;;;5033561;28;19983;-77
2022/06/25 14:52:14;;;;;;;;;;;;;;;;;;5033990;28;20002;-78
2022/06/25 14:54:41;;;;;;;;;;;;;;;;;;5034660;28;20434;-76
2022/06/25 14:57:08;;;;;;;;;;;;;;;;;;5034417;28;19925;-77
2022/06/25 14:59:37;;;;;;;;;;;;;;;;;;5034286;28;19983;-77
2022/06/25 15:02:11;;;;;;;;;;;;;;;;;;5034384;28;19925;-77
2022/06/25 15:04:38;;;;;;;;;;;;;;;;;;5034732;28;19959;-77
2022/06/25 15:07:04;;;;;;;;;;;;;;;;;;5034471;28;19975;-77
2022/06/25 15:09:31;;;;;;;;;;;;;;;;;;5033757;28;20388;-77
2022/06/25 15:11:57;;;;;;;;;;;;;;;;;;5034183;28;19957;-77
2022/06/25 15:14:24;;;;;;;;;;;;;;;;;;5034333;28;20012;-76
2022/06/25 15:16:51;;;;;;;;;;;;;;;;;;5034335;28;19961;-77
2022/06/25 15:19:18;;;;;;;;;;;;;;;;;;5033595;28;20403;-77
2022/06/25 15:21:44;;;;;;;;;;;;;;;;;;5034672;28;19961;-76
2022/06/25 15:24:17;;;;;;;;;;;;;;;;;;5034481;28;19979;-77
2022/06/25 15:26:43;;;;;;;;;;;;;;;;;;5034005;28;19975;-77
2022/06/25 15:29:10;;;;;;;;;;;;;;;;;;5033886;28;20004;-76
2022/06/25 15:31:36;;;;;;;;;;;;;;;;;;5032407;28;19925;-76
2022/06/25 15:34:04;;;;;;;;;;;;;;;;;;5033998;28;20024;-77
2022/06/25 15:36:41;;;;;;;;;;;;;;;;;;5033780;28;19929;-76
2022/06/25 15:39:07;;;;;;;;;;;;;;;;;;5034066;28;19964;-76
2022/06/25 15:41:34;;;;;;;;;;;;;;;;;;5033274;28;19972;-76
2022/06/25 15:44:01;;;;;;;;;;;;;;;;;;5033939;28;19925;-76
2022/06/25 15:46:28;;;;;;;;;;;;;;;;;;5033526;28;19968;-78
2022/06/25 15:48:55;;;;;;;;;;;;;;;;;;5033668;28;19990;-77
2022/06/25 15:51:23;;;;;;;;;;;;;;;;;;5033547;28;19931;-78
2022/06/25 15:53:49;;;;;;;;;;;;;;;;;;5033680;28;19929;-76
2022/06/25 15:56:16;;;;;;;;;;;;;;;;;;5033450;28;20379;-77
2022/06/25 16:01:26;;;;;;;;;;;;;;;;;;5033040;28;19979;-77
2022/06/25 16:03:52;;;;;;;;;;;;;;;;;;5033115;28;20327;-77
2022/06/25 16:06:19;;;;;;;;;;;;;;;;;;5032850;28;20356;-77
2022/06/25 16:08:47;;;;;;;;;;;;;;;;;;5033045;28;19925;-77
2022/06/25 16:13:54;;;;;;;;;;;;;;;;;;5030246;28;19925;-77
2022/06/25 16:16:20;;;;;;;;;;;;;;;;;;5033054;28;19925;-77
2022/06/25 16:18:48;;;;;;;;;;;;;;;;;;5032631;28;19976;-77
2022/06/25 16:21:15;;;;;;;;;;;;;;;;;;5032634;28;20003;-77
2022/06/25 16:23:41;;;;;;;;;;;;;;;;;;5032732;28;20016;-76
2022/06/25 16:26:09;;;;;;;;;;;;;;;;;;5032775;28;20011;-76
2022/06/25 16:28:36;;;;;;;;;;;;;;;;;;5032940;28;19947;-76
2022/06/25 16:31:05;;;;;;;;;;;;;;;;;;5032595;28;19929;-77
2022/06/25 16:33:32;;;;;;;;;;;;;;;;;;5032766;28;20008;-77
2022/06/25 16:35:58;;;;;;;;;;;;;;;;;;5032750;28;19925;-77
2022/06/25 16:38:28;;;;;;;;;;;;;;;;;;5032721;28;20007;-77
2022/06/25 16:40:54;;;;;;;;;;;;;;;;;;5032479;28;20012;-77
2022/06/25 16:43:22;;;;;;;;;;;;;;;;;;5031915;28;20400;-77
2022/06/25 16:45:49;;;;;;;;;;;;;;;;;;5032601;28;19948;-77
2022/06/25 16:48:15;;;;;;;;;;;;;;;;;;5032289;28;19925;-76
2022/06/25 16:50:42;;;;;;;;;;;;;;;;;;5033197;28;19931;-76
2022/06/25 16:53:08;;;;;;;;;;;;;;;;;;5032480;28;19979;-77
2022/06/25 16:55:34;;;;;;;;;;;;;;;;;;5032283;28;19976;-77
2022/06/25 16:58:03;;;;;;;;;;;;;;;;;;5032654;28;19925;-76
2022/06/25 17:00:31;;;;;;;;;;;;;;;;;;5031895;28;20391;-77
2022/06/25 17:02:58;;;;;;;;;;;;;;;;;;5032625;28;19925;-77
2022/06/25 17:05:25;;;;;;;;;;;;;;;;;;5032759;28;19979;-77
2022/06/25 17:07:52;;;;;;;;;;;;;;;;;;5032819;28;19929;-77
2022/06/25 17:10:18;;;;;;;;;;;;;;;;;;5031772;28;19932;-76
2022/06/25 17:12:45;;;;;;;;;;;;;;;;;;5032006;28;20414;-76
2022/06/25 17:15:12;;;;;;;;;;;;;;;;;;5032016;28;20342;-77
2022/06/25 17:17:40;;;;;;;;;;;;;;;;;;5031987;28;19956;-77
2022/06/25 17:20:07;;;;;;;;;;;;;;;;;;5031646;28;20395;-76